Praga, Češka

03:47 PM CEST on avgust 04, 2015 (GMT +0200)
Zlicinske zahrady | | Change Station
CLOSE
Current Station
Osebne vremenske postaje
Location: Česká Republika,
Višina: 1211 ft
Nearby Weather Stations

Viš 1211 ft 50.06 °N, 14.29 °E | Updated 49 seconds ago

Clear
Jasno
90.3 °F
Feels Like 88 °F
N
3.1
Veter Spremenljivo Veter od Jug
Gusts 3.8 mph

Danes
High -- | Low -- °F
--% Chance of Precip.
Yesterday
High -- | Low -- °F
Precip. -- v
5:35 AM 8:41 PM
Pojemajoča luna, 77% visible
Zračni tlak 29.92 v
Vidljivost -9999.0 milje
Oblaki
Toplotni indeks 88 °F
Rosišče 53 °F
Vlažnost 28%
Padavine 0.00 v
Snow Depth Not available.
UV Not available.
Pollen Not available.
Air Quality Not available.
Flu Activity Not available.
METAR LKPR 041330Z 15009KT CAVOK 31/13 Q1013 NOSIG

More Conditions Fewer Conditions

Zračni tlak 29.92 v
Vidljivost -9999.0 milje
Oblaki
Toplotni indeks 88 °F
Rosišče 53 °F
Vlažnost 28%
Padavine 0.00 v
Snow Depth Not available.
UV Not available.
Pollen Not available.
Air Quality Not available.
Flu Activity Not available.
METAR LKPR 041330Z 15009KT CAVOK 31/13 Q1013 NOSIG

More Conditions Fewer Conditions

10-Day Weather Forecast

×

Almanac

Astronomija

Aug. 04, 2015 Rise Set
Actual Time
Civil Twilight
Nautical Twilight
Astronomical Twilight
Moon
Length Of Visible Light
Dolžina dneva
Tomorrow will be .
, % of the Moon is Illuminated

Današnji ekstremi

Country Highs Country Lows

Community

WunderPhotos

Upload Photos

1,843,912 photos uploaded!

WunderBlogs® & News

Nearby

Air Quality

  Air Quality AQ Index Pollutant
Not available.

Snow Depth

Station Depth Višina

Earthquake Activity

City Distance Mag. Time & Date
Minimum magnitude displayed is 2.5.

Coastal Water Temperatures

Mesto Temperatura

Stations

Nearby Weather Stations

Station Location Temp Občutek zaradi vetra Rosišče Vlažnost Veter Precip. Viš Obnovljeno Type